Time;durP1;ratioP1;P1;durP2;ratioP2;P2;SDS_P1;SDS_P2;PMS_P1;PMS_P2;Temp;Humidity;BMP_temperature;BMP_pressure;BME280_temperature;BME280_humidity;BME280_pressure;Samples;Min_cycle;Max_cycle;Signal;HPM_P1;HPM_P2
2021/07/02 00:01:50;;;;;;;19.50;8.27;;;;;;;22.95;74.24;94406.75;5072518;28;20531;-80
2021/07/02 00:04:17;;;;;;;10.20;7.83;;;;;;;22.86;73.41;94408.88;5072710;28;20525;-80
2021/07/02 00:06:44;;;;;;;11.27;8.23;;;;;;;22.77;73.18;94415.47;5071756;28;20518;-79
2021/07/02 00:09:10;;;;;;;16.00;9.37;;;;;;;22.67;74.16;94414.34;5072099;28;20961;-79
2021/07/02 00:11:37;;;;;;;15.90;8.50;;;;;;;22.60;72.73;94405.53;5071968;28;20487;-80
2021/07/02 00:14:06;;;;;;;13.23;7.97;;;;;;;22.68;74.26;94411.44;5072191;28;20465;-79
2021/07/02 00:16:34;;;;;;;11.33;8.27;;;;;;;22.70;73.99;94414.72;5036375;28;20441;-80
2021/07/02 00:19:01;;;;;;;20.03;9.30;;;;;;;22.70;74.53;94414.72;5071917;28;20447;-80
2021/07/02 00:21:28;;;;;;;15.90;10.07;;;;;;;22.70;74.43;94417.41;5072192;28;20538;-80
2021/07/02 00:23:55;;;;;;;11.80;8.17;;;;;;;22.74;74.16;94415.91;5073627;28;20462;-79
2021/07/02 00:26:22;;;;;;;12.27;8.60;;;;;;;22.80;73.63;94420.41;5076153;28;20448;-80
2021/07/02 00:28:49;;;;;;;15.07;8.70;;;;;;;22.83;73.80;94430.69;5075728;28;20869;-80
2021/07/02 00:31:17;;;;;;;15.98;8.43;;;;;;;22.99;73.32;94436.56;5075009;28;20454;-79
2021/07/02 00:33:44;;;;;;;13.80;9.70;;;;;;;23.07;71.08;94458.53;5075795;28;20216;-79
2021/07/02 00:36:11;;;;;;;14.13;9.30;;;;;;;23.07;70.54;94473.75;5040344;28;20462;-80
2021/07/02 00:38:38;;;;;;;15.30;8.20;;;;;;;22.82;72.52;94476.41;5075759;28;20448;-79
2021/07/02 00:41:06;;;;;;;13.93;7.90;;;;;;;22.81;72.99;94486.28;5075791;28;20446;-79
2021/07/02 00:43:33;;;;;;;14.70;9.00;;;;;;;22.64;73.76;94489.66;5075541;28;20458;-79
2021/07/02 00:46:02;;;;;;;12.90;9.10;;;;;;;22.52;74.49;94497.53;5076086;28;20529;-79
2021/07/02 00:48:30;;;;;;;14.83;9.23;;;;;;;22.42;77.07;94510.53;5075536;28;20478;-79
2021/07/02 00:50:57;;;;;;;14.63;9.47;;;;;;;22.34;76.70;94497.41;5075430;28;20572;-79
2021/07/02 00:53:24;;;;;;;16.00;9.93;;;;;;;21.93;78.92;94510.03;5075618;28;20828;-79
2021/07/02 00:55:51;;;;;;;16.63;10.73;;;;;;;21.94;80.78;94502.84;5075584;28;20448;-79
2021/07/02 00:58:20;;;;;;;25.43;11.33;;;;;;;21.63;80.46;94487.47;5075653;28;20447;-79
2021/07/02 01:00:48;;;;;;;17.13;9.50;;;;;;;21.52;81.00;94488.94;5023320;28;20455;-79
2021/07/02 01:03:15;;;;;;;21.93;9.90;;;;;;;21.48;81.32;94486.91;5039961;28;20999;-79
2021/07/02 01:05:45;;;;;;;22.27;9.47;;;;;;;21.48;81.33;94473.56;5075327;28;20474;-79
2021/07/02 01:08:12;;;;;;;14.80;8.40;;;;;;;21.41;80.88;94467.41;5075110;28;20452;-79
2021/07/02 01:10:39;;;;;;;12.23;8.40;;;;;;;21.32;81.65;94464.09;5075223;28;20482;-79
2021/07/02 01:13:07;;;;;;;12.80;8.40;;;;;;;21.25;81.69;94461.44;5075355;28;20525;-79
2021/07/02 01:15:34;;;;;;;9.53;7.87;;;;;;;21.27;82.01;94461.25;5074849;28;20440;-79
2021/07/02 01:18:06;;;;;;;9.53;7.73;;;;;;;21.30;81.91;94469.66;5075056;28;20904;-79
2021/07/02 01:20:32;;;;;;;10.57;8.10;;;;;;;21.32;81.73;94458.75;5075131;28;20522;-79
2021/07/02 01:23:01;;;;;;;16.67;8.00;;;;;;;21.44;81.76;94459.78;5075067;28;20444;-79
2021/07/02 01:25:32;;;;;;;15.77;7.77;;;;;;;21.42;80.98;94453.84;5075178;28;20533;-79
2021/07/02 01:27:59;;;;;;;13.83;7.40;;;;;;;21.46;80.89;94457.75;5074671;28;20518;-79
2021/07/02 01:30:26;;;;;;;14.10;7.90;;;;;;;21.53;81.34;94461.22;5023304;28;20484;-79
2021/07/02 01:32:57;;;;;;;10.87;7.63;;;;;;;21.55;80.62;94459.16;5023208;28;20452;-79
2021/07/02 01:35:24;;;;;;;12.87;8.27;;;;;;;21.55;80.14;94455.66;5073426;28;20947;-79
2021/07/02 01:37:51;;;;;;;11.10;7.30;;;;;;;21.61;79.85;94461.00;5074684;28;20881;-79
2021/07/02 01:40:19;;;;;;;16.73;7.63;;;;;;;21.69;78.38;94448.47;5074474;28;20537;-79
2021/07/02 01:42:47;;;;;;;9.30;7.77;;;;;;;21.77;78.00;94456.25;5074447;28;21022;-80
2021/07/02 01:45:14;;;;;;;8.93;6.60;;;;;;;21.83;77.07;94455.41;5074801;28;20544;-80
2021/07/02 01:47:41;;;;;;;10.27;6.83;;;;;;;21.74;77.37;94456.66;5022753;28;20477;-79
2021/07/02 01:50:09;;;;;;;7.57;6.47;;;;;;;21.76;76.95;94465.28;5074333;28;20525;-79
2021/07/02 01:52:36;;;;;;;7.93;6.60;;;;;;;21.73;76.99;94466.53;5023227;28;20541;-79
2021/07/02 01:55:05;;;;;;;14.50;6.10;;;;;;;21.72;76.96;94456.88;5018572;28;20462;-79
2021/07/02 01:57:34;;;;;;;9.20;6.20;;;;;;;21.68;77.02;94468.97;5054309;28;20897;-79
2021/07/02 02:00:00;;;;;;;7.57;6.27;;;;;;;21.71;76.95;94457.91;5054512;28;20469;-79
2021/07/02 02:02:27;;;;;;;9.13;7.17;;;;;;;21.78;76.80;94460.56;5054218;28;20530;-79
2021/07/02 02:04:54;;;;;;;8.30;6.43;;;;;;;21.81;77.48;94457.47;5054279;28;20529;-79
2021/07/02 02:07:21;;;;;;;7.77;6.77;;;;;;;21.85;76.82;94448.00;5054135;28;20510;-79
2021/07/02 02:09:48;;;;;;;8.30;5.70;;;;;;;21.88;77.08;94458.25;5054033;28;20538;-79
2021/07/02 02:12:17;;;;;;;6.60;5.43;;;;;;;21.92;74.91;94443.44;5054087;28;20485;-79
2021/07/02 02:14:45;;;;;;;9.33;5.13;;;;;;;21.94;75.19;94447.53;5053827;28;21053;-79
2021/07/02 02:17:12;;;;;;;6.17;5.57;;;;;;;22.00;74.55;94443.22;5053966;28;20538;-79
2021/07/02 02:19:39;;;;;;;6.63;5.90;;;;;;;22.02;74.41;94435.81;5053983;28;20521;-79
2021/07/02 02:22:07;;;;;;;6.50;5.13;;;;;;;22.18;73.92;94442.56;5053878;28;20987;-79
2021/07/02 02:24:34;;;;;;;8.33;6.40;;;;;;;22.33;74.51;94444.97;5053841;28;20454;-79
2021/07/02 02:27:01;;;;;;;7.50;5.57;;;;;;;22.48;74.54;94442.81;5053569;28;20444;-79
2021/07/02 02:29:27;;;;;;;7.17;6.00;;;;;;;22.50;72.57;94433.56;5053910;28;20455;-79
2021/07/02 02:31:56;;;;;;;7.07;5.30;;;;;;;22.60;72.65;94435.78;5053424;28;20484;-79
2021/07/02 02:34:23;;;;;;;6.97;6.13;;;;;;;22.62;71.07;94433.72;5053828;28;21051;-79
2021/07/02 02:36:51;;;;;;;7.10;5.20;;;;;;;22.55;71.66;94439.09;5053459;28;20455;-79
2021/07/02 02:39:18;;;;;;;6.40;5.80;;;;;;;22.56;71.17;94434.56;5053430;28;20460;-79
2021/07/02 02:41:45;;;;;;;7.63;5.73;;;;;;;22.58;71.46;94437.03;5034710;28;20443;-79
2021/07/02 02:44:12;;;;;;;11.70;6.03;;;;;;;22.63;71.50;94432.66;5053600;28;20958;-79
2021/07/02 02:46:39;;;;;;;4.87;4.23;;;;;;;22.52;69.96;94433.34;5053015;28;20452;-79
2021/07/02 02:49:07;;;;;;;5.70;5.10;;;;;;;22.44;69.86;94438.94;5053379;28;20447;-79
2021/07/02 02:51:34;;;;;;;5.70;5.17;;;;;;;22.34;70.82;94441.28;5053109;28;20519;-78
2021/07/02 02:54:01;;;;;;;7.10;5.23;;;;;;;22.24;70.21;94442.53;5062166;28;20474;-79
2021/07/02 02:56:28;;;;;;;5.20;4.80;;;;;;;22.24;72.25;94441.69;5073067;28;20469;-79
2021/07/02 02:58:55;;;;;;;8.83;5.00;;;;;;;22.11;70.35;94444.44;5037763;28;20516;-79
2021/07/02 03:01:22;;;;;;;10.77;5.23;;;;;;;21.98;70.92;94453.31;5073229;28;20541;-79
2021/07/02 03:03:49;;;;;;;5.37;4.80;;;;;;;21.90;71.02;94449.00;5072821;28;20447;-79
2021/07/02 03:06:17;;;;;;;5.83;5.20;;;;;;;21.95;71.40;94453.72;5073088;28;20450;-79
2021/07/02 03:08:44;;;;;;;5.63;5.13;;;;;;;22.09;72.29;94451.84;5037359;28;20431;-79
2021/07/02 03:11:11;;;;;;;5.03;4.53;;;;;;;22.08;69.75;94451.03;5073224;28;20504;-79
2021/07/02 03:13:38;;;;;;;7.43;5.73;;;;;;;22.09;69.96;94458.03;5072785;28;20455;-79
2021/07/02 03:16:05;;;;;;;6.37;4.60;;;;;;;22.08;69.76;94467.06;5072802;28;20518;-79
2021/07/02 03:18:32;;;;;;;5.00;4.60;;;;;;;22.05;70.17;94458.66;5020776;28;20430;-79
2021/07/02 03:20:59;;;;;;;8.00;4.10;;;;;;;22.11;69.29;94463.97;5073135;28;20441;-79
2021/07/02 03:23:27;;;;;;;6.87;4.43;;;;;;;22.08;70.14;94464.41;5072715;28;20947;-80
2021/07/02 03:25:54;;;;;;;10.10;4.23;;;;;;;22.22;69.20;94470.50;5072458;28;20557;-79
2021/07/02 03:28:21;;;;;;;4.40;4.00;;;;;;;22.22;69.20;94476.66;5072172;28;20521;-79
2021/07/02 03:30:48;;;;;;;3.87;3.57;;;;;;;22.22;68.13;94483.88;5054651;28;20477;-79
2021/07/02 03:33:15;;;;;;;4.83;3.83;;;;;;;21.99;68.30;94470.16;5073271;28;20442;-80
2021/07/02 03:35:42;;;;;;;4.10;3.60;;;;;;;21.92;69.23;94480.84;5073645;28;20452;-79
2021/07/02 03:38:09;;;;;;;4.43;4.03;;;;;;;21.78;69.58;94480.06;5073638;28;20438;-79
2021/07/02 03:40:37;;;;;;;4.07;3.77;;;;;;;21.60;70.95;94480.72;5073510;28;20448;-79
2021/07/02 03:43:04;;;;;;;4.97;4.37;;;;;;;21.54;71.53;94483.41;5038238;28;20528;-79
2021/07/02 03:45:31;;;;;;;6.63;4.10;;;;;;;21.46;71.57;94486.28;5073127;28;20526;-78
2021/07/02 03:47:58;;;;;;;4.93;3.90;;;;;;;21.45;72.35;94482.78;5073758;28;20540;-79
2021/07/02 03:50:25;;;;;;;4.13;3.83;;;;;;;21.43;72.32;94484.84;5073162;28;20587;-79
2021/07/02 03:52:52;;;;;;;3.97;3.67;;;;;;;21.32;72.85;94486.28;5020246;28;20585;-80
2021/07/02 03:55:19;;;;;;;5.40;4.10;;;;;;;21.23;73.42;94492.00;5072551;28;20665;-80
2021/07/02 03:57:47;;;;;;;4.70;3.50;;;;;;;21.22;73.71;94490.38;5071376;28;20914;-79
2021/07/02 04:00:15;;;;;;;4.83;4.43;;;;;;;21.13;73.64;94492.41;5072412;28;20441;-79
2021/07/02 04:02:42;;;;;;;6.03;3.90;;;;;;;21.23;74.32;94492.00;5073163;28;20484;-78
2021/07/02 04:05:10;;;;;;;5.80;5.30;;;;;;;21.43;73.92;94498.19;5072898;28;20521;-78
2021/07/02 04:07:37;;;;;;;7.33;5.00;;;;;;;21.73;73.17;94498.56;5072366;28;20449;-79
2021/07/02 04:10:04;;;;;;;7.40;4.40;;;;;;;22.11;71.75;94506.72;5072074;28;20449;-79
2021/07/02 04:12:31;;;;;;;4.73;4.33;;;;;;;22.57;70.70;94511.09;5020342;28;20497;-79
2021/07/02 04:15:02;;;;;;;6.33;4.60;;;;;;;22.94;68.96;94497.94;5057081;28;20474;-79
2021/07/02 04:17:29;;;;;;;4.20;3.80;;;;;;;23.44;67.88;94512.22;5057043;28;20439;-80
2021/07/02 04:19:56;;;;;;;4.97;4.57;;;;;;;24.06;65.19;94516.63;5052866;28;20529;-78
2021/07/02 04:22:23;;;;;;;4.50;4.13;;;;;;;24.81;62.73;94523.59;5068139;28;20736;-78
2021/07/02 04:24:50;;;;;;;5.40;4.30;;;;;;;25.19;62.05;94518.78;5064283;28;20489;-79
2021/07/02 04:27:17;;;;;;;4.77;4.00;;;;;;;25.62;60.15;94525.75;5071954;28;20538;-80
2021/07/02 04:29:45;;;;;;;5.43;4.00;;;;;;;25.85;59.27;94514.22;5071488;28;20483;-79
2021/07/02 04:32:13;;;;;;;3.87;3.53;;;;;;;26.01;57.67;94523.44;5071822;28;20492;-79
2021/07/02 04:34:40;;;;;;;7.23;3.37;;;;;;;25.80;57.84;94528.38;5053809;28;20536;-77
2021/07/02 04:37:07;;;;;;;4.20;3.90;;;;;;;25.54;58.57;94513.47;5000615;28;20447;-78
2021/07/02 04:39:35;;;;;;;5.53;4.60;;;;;;;25.48;58.55;94525.16;5051377;28;20445;-77
2021/07/02 04:42:02;;;;;;;3.80;3.60;;;;;;;25.66;59.28;94528.78;5052055;28;20528;-78
2021/07/02 04:44:29;;;;;;;12.63;4.67;;;;;;;25.44;59.44;94523.13;5051550;28;20463;-78
2021/07/02 04:46:55;;;;;;;7.83;4.80;;;;;;;25.41;59.25;94523.59;5051637;28;20440;-78
2021/07/02 04:49:24;;;;;;;7.47;4.33;;;;;;;25.41;58.77;94526.28;5051442;28;20452;-78
2021/07/02 04:51:51;;;;;;;5.17;4.30;;;;;;;25.40;59.36;94521.97;5051776;28;20571;-78
2021/07/02 04:54:18;;;;;;;5.40;5.00;;;;;;;24.92;60.29;94523.66;4996927;28;20485;-77
2021/07/02 04:56:47;;;;;;;5.20;4.43;;;;;;;25.00;60.58;94527.91;5031208;28;20542;-77
2021/07/02 04:59:14;;;;;;;6.07;5.30;;;;;;;24.94;61.32;94540.38;5032161;28;20451;-79
2021/07/02 05:01:41;;;;;;;11.80;5.50;;;;;;;25.09;61.64;94542.66;4997365;28;20972;-78
2021/07/02 05:04:08;;;;;;;6.00;5.27;;;;;;;25.31;60.56;94548.34;5032631;28;20509;-78
2021/07/02 05:06:37;;;;;;;9.20;4.70;;;;;;;25.66;60.30;94551.09;5031880;28;20441;-77
2021/07/02 05:09:05;;;;;;;6.00;5.50;;;;;;;25.50;58.94;94549.09;5032268;28;20933;-78
2021/07/02 05:11:34;;;;;;;10.50;6.37;;;;;;;25.34;61.36;94550.56;5036125;28;20485;-78
2021/07/02 05:14:03;;;;;;;7.40;6.80;;;;;;;25.70;59.11;94548.78;5036070;28;20476;-78
2021/07/02 05:16:30;;;;;;;7.40;6.80;;;;;;;25.62;57.94;94541.88;5001528;28;20449;-77
2021/07/02 05:18:57;;;;;;;7.20;6.60;;;;;;;25.42;59.34;94560.97;5036060;28;20528;-80
2021/07/02 05:21:23;;;;;;;9.23;7.10;;;;;;;25.70;59.84;94555.00;5016949;28;20831;-78
2021/07/02 05:23:52;;;;;;;9.63;6.13;;;;;;;25.98;59.67;94561.56;5017183;28;20529;-79
2021/07/02 05:26:19;;;;;;;12.53;7.10;;;;;;;25.96;58.11;94563.66;5035916;28;20450;-79
2021/07/02 05:28:46;;;;;;;7.17;6.30;;;;;;;25.76;58.80;94564.03;5000193;28;20475;-75
2021/07/02 05:31:14;;;;;;;6.87;5.90;;;;;;;25.59;60.85;94569.19;5035497;28;20446;-78
2021/07/02 05:33:41;;;;;;;8.50;7.70;;;;;;;25.59;59.57;94569.19;5010383;28;20442;-78
2021/07/02 05:36:08;;;;;;;7.60;7.10;;;;;;;25.50;58.92;94573.28;5020641;28;20519;-78
2021/07/02 05:38:35;;;;;;;7.80;7.20;;;;;;;25.62;59.23;94569.56;5054660;28;20936;-75
2021/07/02 05:41:03;;;;;;;8.73;8.00;;;;;;;25.30;59.96;94570.88;5054230;28;20539;-76
2021/07/02 05:43:31;;;;;;;14.43;8.07;;;;;;;24.85;61.23;94575.78;5054892;28;20916;-76
2021/07/02 05:45:57;;;;;;;8.30;7.60;;;;;;;24.54;62.42;94580.28;4995376;28;20447;-75
2021/07/02 05:48:24;;;;;;;9.23;8.43;;;;;;;24.37;63.21;94580.06;5034598;28;20445;-76
2021/07/02 05:50:51;;;;;;;8.57;7.90;;;;;;;24.18;63.01;94580.22;5035041;28;20988;-76
2021/07/02 05:53:18;;;;;;;8.90;8.00;;;;;;;23.84;64.45;94584.25;5037268;28;20992;-76
2021/07/02 05:55:45;;;;;;;9.07;8.37;;;;;;;23.42;66.15;94579.41;5056740;28;20450;-76
2021/07/02 05:58:15;;;;;;;10.90;9.20;;;;;;;22.92;67.77;94577.63;5022596;28;20466;-75
2021/07/02 06:00:42;;;;;;;10.97;8.27;;;;;;;22.74;68.67;94589.00;5018990;28;20447;-75
2021/07/02 06:03:09;;;;;;;10.38;9.35;;;;;;;22.67;69.06;94591.69;5054265;28;20995;-75
2021/07/02 06:05:36;;;;;;;10.17;9.27;;;;;;;22.68;69.98;94588.00;5019181;28;20206;-76
2021/07/02 06:08:05;;;;;;;11.20;9.70;;;;;;;22.50;70.79;94601.22;5054628;28;20517;-75
2021/07/02 06:10:32;;;;;;;13.73;8.67;;;;;;;22.82;69.99;94599.47;5035882;28;20935;-76
2021/07/02 06:13:00;;;;;;;10.23;9.13;;;;;;;22.99;68.04;94597.97;5054375;28;21003;-77
2021/07/02 06:15:29;;;;;;;10.40;9.43;;;;;;;23.00;67.95;94601.47;5054199;28;20496;-76
2021/07/02 06:17:57;;;;;;;10.43;9.37;;;;;;;23.02;68.81;94599.38;5054403;28;20497;-76
2021/07/02 06:20:25;;;;;;;11.00;10.00;;;;;;;23.11;67.52;94603.44;5053965;28;20482;-75
2021/07/02 06:22:52;;;;;;;10.10;9.10;;;;;;;23.24;66.80;94598.03;5053615;28;20449;-76
2021/07/02 06:25:19;;;;;;;11.43;10.37;;;;;;;23.51;65.95;94604.06;5018675;28;20438;-76
2021/07/02 06:27:46;;;;;;;9.97;9.10;;;;;;;23.81;66.62;94598.09;5018980;28;20440;-75
2021/07/02 06:30:15;;;;;;;9.30;8.40;;;;;;;23.99;62.76;94609.66;5053998;28;20445;-75
2021/07/02 06:32:43;;;;;;;9.50;8.70;;;;;;;24.00;63.99;94608.66;5035611;28;20560;-76
2021/07/02 06:35:11;;;;;;;9.80;9.00;;;;;;;24.05;63.56;94606.13;5053202;28;20535;-76
2021/07/02 06:37:38;;;;;;;10.10;8.13;;;;;;;23.93;64.24;94607.88;5054017;28;20529;-75
2021/07/02 06:40:06;;;;;;;10.90;9.80;;;;;;;24.06;64.16;94612.31;5053738;28;20453;-76
2021/07/02 06:42:33;;;;;;;9.73;8.80;;;;;;;23.77;64.92;94603.06;5053731;28;21072;-76
2021/07/02 06:45:00;;;;;;;10.37;8.93;;;;;;;23.56;64.88;94606.94;5054300;28;20525;-76
2021/07/02 06:47:27;;;;;;;10.43;9.50;;;;;;;23.40;66.13;94613.56;5053942;28;20446;-75
2021/07/02 06:49:55;;;;;;;10.10;9.20;;;;;;;23.43;66.72;94613.16;5053419;28;20878;-76
2021/07/02 06:52:22;;;;;;;11.10;10.20;;;;;;;23.39;67.36;94606.59;5053717;28;20485;-75
2021/07/02 06:54:49;;;;;;;10.60;9.60;;;;;;;23.47;66.21;94606.34;5018031;28;20987;-76
2021/07/02 06:57:16;;;;;;;10.00;9.20;;;;;;;23.70;65.53;94596.91;5053454;28;20448;-75
2021/07/02 06:59:43;;;;;;;10.00;9.07;;;;;;;24.08;64.22;94611.03;5052933;28;20772;-75
2021/07/02 07:02:11;;;;;;;9.60;8.60;;;;;;;24.32;61.45;94605.91;5053628;28;20543;-75
2021/07/02 07:04:39;;;;;;;9.93;8.93;;;;;;;24.56;60.55;94607.69;5053872;28;20918;-78
2021/07/02 07:07:09;;;;;;;8.63;7.83;;;;;;;24.79;59.67;94616.94;5064053;28;20530;-78
2021/07/02 07:09:37;;;;;;;10.20;9.20;;;;;;;25.10;58.89;94610.59;5071297;28;20451;-78
2021/07/02 07:12:06;;;;;;;12.80;8.30;;;;;;;25.57;58.50;94614.31;5054013;28;20575;-79
2021/07/02 07:14:33;;;;;;;9.83;9.03;;;;;;;25.77;56.73;94608.66;5053572;28;20993;-79
2021/07/02 07:17:01;;;;;;;9.77;8.33;;;;;;;25.98;55.82;94618.03;5053968;28;21019;-78
2021/07/02 07:19:28;;;;;;;8.23;7.60;;;;;;;26.18;55.28;94616.66;5053287;28;20488;-79
2021/07/02 07:21:56;;;;;;;9.17;8.37;;;;;;;26.36;55.83;94618.47;5034899;28;21051;-78
2021/07/02 07:24:24;;;;;;;9.00;8.30;;;;;;;26.33;53.58;94615.38;5053179;28;20525;-78
2021/07/02 07:26:51;;;;;;;8.60;7.93;;;;;;;26.16;54.48;94613.38;5053485;28;20445;-78
2021/07/02 07:29:18;;;;;;;9.30;8.47;;;;;;;25.99;54.78;94612.41;5053504;28;20464;-78
2021/07/02 07:31:45;;;;;;;9.87;9.00;;;;;;;26.21;54.78;94605.44;5053390;28;20476;-78
2021/07/02 07:34:14;;;;;;;10.80;8.73;;;;;;;26.14;54.61;94620.06;5052468;28;20953;-78
2021/07/02 07:36:41;;;;;;;8.60;8.00;;;;;;;26.17;54.64;94608.81;5053303;28;20480;-77
2021/07/02 07:39:08;;;;;;;9.10;8.33;;;;;;;26.11;54.05;94618.66;5053135;28;20522;-78
2021/07/02 07:41:36;;;;;;;9.03;8.20;;;;;;;26.31;53.98;94618.31;5002201;28;20541;-79
2021/07/02 07:44:03;;;;;;;9.27;8.47;;;;;;;26.43;53.43;94624.53;5002063;28;20453;-78
2021/07/02 07:46:30;;;;;;;13.77;7.83;;;;;;;26.54;53.21;94620.19;5053013;28;20452;-78
2021/07/02 07:48:57;;;;;;;9.47;8.60;;;;;;;26.76;53.48;94618.53;5052912;28;20449;-78
2021/07/02 07:51:36;;;;;;;10.43;9.53;;;;;;;27.01;52.53;94623.66;5053112;28;20944;-78
2021/07/02 07:54:04;;;;;;;12.87;8.60;;;;;;;27.08;51.56;94616.25;5033927;28;20808;-78
2021/07/02 07:56:31;;;;;;;9.90;9.00;;;;;;;26.96;51.83;94618.16;5052916;28;20814;-78
2021/07/02 07:58:59;;;;;;;9.70;9.00;;;;;;;26.97;50.82;94618.97;5051674;28;20555;-78
2021/07/02 08:01:26;;;;;;;9.23;8.00;;;;;;;27.15;50.52;94616.94;5053049;28;20531;-78
2021/07/02 08:03:54;;;;;;;8.77;7.97;;;;;;;27.05;50.55;94611.34;5052886;28;20453;-78
2021/07/02 08:06:21;;;;;;;9.90;8.90;;;;;;;26.94;50.65;94622.94;5052446;28;20446;-78
2021/07/02 08:08:48;;;;;;;12.13;9.30;;;;;;;27.08;50.70;94612.75;5052888;28;20533;-78
2021/07/02 08:11:15;;;;;;;13.50;9.10;;;;;;;27.02;51.70;94616.41;5001978;28;20540;-78
2021/07/02 08:13:42;;;;;;;10.90;9.20;;;;;;;26.79;51.19;94618.06;5001717;28;20485;-78
2021/07/02 08:16:10;;;;;;;14.00;8.77;;;;;;;26.73;51.65;94612.81;5053341;28;20470;-78
2021/07/02 08:18:37;;;;;;;9.37;8.60;;;;;;;26.99;51.95;94617.69;5052620;28;21663;-77
2021/07/02 08:21:05;;;;;;;9.03;8.37;;;;;;;27.29;50.79;94611.28;5052675;28;20442;-78
2021/07/02 08:23:34;;;;;;;9.77;8.77;;;;;;;27.36;49.23;94617.34;5052678;28;20446;-78
2021/07/02 08:26:01;;;;;;;11.90;8.87;;;;;;;27.08;49.56;94610.06;5052643;28;20441;-78
2021/07/02 08:31:14;;;;;;;9.53;8.80;;;;;;;27.05;49.20;94605.97;5052743;28;20924;-79
2021/07/02 08:33:41;;;;;;;8.43;7.80;;;;;;;27.02;50.14;94605.63;5053306;28;20580;-78
2021/07/02 08:36:08;;;;;;;9.30;8.50;;;;;;;26.84;50.35;94601.19;5053181;28;20765;-79
2021/07/02 08:38:35;;;;;;;9.33;8.33;;;;;;;26.85;50.13;94605.50;5052377;28;20454;-79
2021/07/02 08:41:03;;;;;;;9.23;8.43;;;;;;;26.80;50.71;94598.16;5052963;28;20571;-79
2021/07/02 08:43:30;;;;;;;8.27;7.53;;;;;;;26.84;49.32;94606.56;5053040;28;20474;-83
2021/07/02 08:45:58;;;;;;;13.33;7.13;;;;;;;26.89;49.91;94606.69;5056060;28;20537;-80
2021/07/02 08:48:27;;;;;;;9.57;8.37;;;;;;;26.94;49.14;94612.19;5056379;28;20875;-80
2021/07/02 08:50:55;;;;;;;10.40;7.00;;;;;;;27.00;48.54;94600.47;5056494;28;20516;-80
2021/07/02 08:53:22;;;;;;;7.30;6.70;;;;;;;26.96;48.62;94591.22;5005221;28;20504;-80
2021/07/02 08:55:51;;;;;;;6.20;5.70;;;;;;;26.77;48.17;94592.41;5057128;28;20579;-81
2021/07/02 08:58:20;;;;;;;7.90;7.10;;;;;;;26.83;48.41;94591.47;5056451;28;20456;-79
2021/07/02 09:00:47;;;;;;;6.60;6.10;;;;;;;26.70;49.31;94603.31;5056335;28;20441;-79
2021/07/02 09:03:37;;;;;;;7.00;6.50;;;;;;;26.73;49.33;94591.25;5056975;28;20777;-78
2021/07/02 09:06:21;;;;;;;7.43;6.30;;;;;;;26.95;48.75;94591.44;4994985;28;20527;-80
2021/07/02 09:08:59;;;;;;;7.97;6.77;;;;;;;27.05;48.67;94589.81;4994930;28;20543;-80
2021/07/02 09:11:27;;;;;;;6.47;6.03;;;;;;;27.12;47.80;94590.47;4946842;28;20542;-82
2021/07/02 09:13:55;;;;;;;6.90;6.30;;;;;;;27.12;47.70;94590.47;4995803;28;20480;-79
2021/07/02 09:16:23;;;;;;;5.53;5.03;;;;;;;27.30;46.55;94585.97;4994700;28;20871;-78
2021/07/02 09:18:52;;;;;;;5.90;5.50;;;;;;;27.21;45.98;94577.47;4962094;28;20440;-79
2021/07/02 09:21:26;;;;;;;5.47;4.93;;;;;;;27.30;46.33;94581.41;4962160;28;20555;-78
2021/07/02 09:23:57;;;;;;;6.80;6.30;;;;;;;27.10;46.85;94568.34;4994700;28;20510;-78
2021/07/02 09:26:38;;;;;;;6.50;6.10;;;;;;;27.12;47.69;94581.56;4993677;28;20448;-77
2021/07/02 09:29:19;;;;;;;6.47;5.90;;;;;;;26.94;47.46;94582.56;4962676;28;20991;-77
2021/07/02 09:31:57;;;;;;;6.20;5.70;;;;;;;26.96;47.23;94585.00;4994147;28;20436;-77
2021/07/02 09:34:48;;;;;;;6.73;6.20;;;;;;;26.88;47.05;94580.78;4994010;28;21019;-77
2021/07/02 09:37:22;;;;;;;7.17;6.60;;;;;;;27.11;47.76;94582.63;4993874;28;20441;-77
2021/07/02 09:39:49;;;;;;;5.80;5.40;;;;;;;26.90;46.10;94575.19;4994045;28;20985;-78
2021/07/02 09:42:23;;;;;;;6.70;6.20;;;;;;;26.89;46.43;94578.91;5005168;28;20505;-77
2021/07/02 09:45:04;;;;;;;5.80;5.17;;;;;;;26.59;46.71;94579.91;5055505;28;20532;-78
2021/07/02 09:47:31;;;;;;;5.43;5.03;;;;;;;26.73;46.90;94580.50;5055430;28;20467;-77
2021/07/02 09:52:54;;;;;;;6.57;5.87;;;;;;;26.39;46.91;94576.81;5110823;27;20536;-77
2021/07/02 09:55:23;;;;;;;8.40;5.37;;;;;;;26.47;48.40;94566.50;5110786;28;20475;-76
2021/07/02 09:57:53;;;;;;;5.20;4.70;;;;;;;26.46;47.04;94564.84;5110624;28;20443;-78
2021/07/02 10:00:21;;;;;;;5.70;5.30;;;;;;;26.25;46.90;94557.34;5110563;28;20451;-78
2021/07/02 10:02:56;;;;;;;5.57;5.20;;;;;;;26.42;48.78;94560.19;5110384;28;20928;-78
2021/07/02 10:05:24;;;;;;;7.27;5.87;;;;;;;26.51;46.95;94556.06;5110766;28;20459;-78
2021/07/02 10:08:04;;;;;;;5.20;4.67;;;;;;;26.49;47.11;94552.81;5110181;28;20450;-78
2021/07/02 10:10:32;;;;;;;4.43;4.13;;;;;;;26.44;46.98;94552.69;5110249;28;20471;-78
2021/07/02 10:13:00;;;;;;;4.77;4.37;;;;;;;26.36;45.94;94551.19;5110721;28;20439;-79
2021/07/02 10:15:28;;;;;;;4.50;4.20;;;;;;;26.27;46.41;94549.88;5110471;28;20926;-78
2021/07/02 10:17:57;;;;;;;4.77;4.40;;;;;;;26.33;46.23;94535.50;5110553;28;20439;-78
2021/07/02 10:20:27;;;;;;;4.47;4.17;;;;;;;26.42;46.10;94542.16;5110759;28;20795;-78
2021/07/02 10:22:57;;;;;;;4.20;4.00;;;;;;;26.23;46.16;94544.13;5110466;28;20451;-78
2021/07/02 10:25:28;;;;;;;3.77;3.47;;;;;;;26.35;46.55;94546.06;5110673;28;20431;-78
2021/07/02 10:27:55;;;;;;;3.60;3.40;;;;;;;26.38;46.88;94538.31;5110430;28;20446;-77
2021/07/02 10:30:22;;;;;;;4.03;3.70;;;;;;;26.46;47.08;94546.03;5109996;28;20728;-77
2021/07/02 10:32:53;;;;;;;3.87;3.27;;;;;;;26.50;47.20;94533.72;5109966;28;20483;-77
2021/07/02 10:35:21;;;;;;;4.30;3.43;;;;;;;26.66;46.60;94528.66;5110125;28;20438;-77
2021/07/02 10:37:52;;;;;;;8.03;3.30;;;;;;;26.54;45.75;94529.50;5090761;28;20526;-77
2021/07/02 10:40:43;;;;;;;3.47;3.17;;;;;;;26.49;46.52;94531.28;5109342;28;20435;-77
2021/07/02 10:43:15;;;;;;;3.23;3.03;;;;;;;26.62;46.95;94530.22;5108971;28;20465;-78
2021/07/02 10:46:14;;;;;;;4.00;3.70;;;;;;;26.22;46.44;94523.66;5108921;28;20446;-77
2021/07/02 10:48:58;;;;;;;3.53;3.23;;;;;;;26.15;46.38;94519.47;5109406;28;20533;-78
2021/07/02 10:51:49;;;;;;;3.50;3.30;;;;;;;26.14;47.29;94528.59;5108791;28;20529;-77
2021/07/02 10:54:37;;;;;;;5.80;3.67;;;;;;;26.25;46.01;94519.69;5108585;28;20451;-77
2021/07/02 10:57:13;;;;;;;4.60;3.43;;;;;;;26.41;46.26;94535.16;5108897;28;20466;-77
2021/07/02 11:00:03;;;;;;;10.50;3.70;;;;;;;26.47;45.96;94525.31;5108780;28;20449;-77
2021/07/02 11:02:30;;;;;;;3.20;3.00;;;;;;;26.43;47.09;94530.34;5104799;28;20475;-76
2021/07/02 11:04:58;;;;;;;6.90;3.73;;;;;;;26.52;46.16;94537.00;5094853;28;20440;-76
2021/07/02 11:07:53;;;;;;;4.03;3.63;;;;;;;26.46;46.60;94523.69;5094960;28;20444;-77
2021/07/02 11:10:22;;;;;;;4.53;3.50;;;;;;;26.28;46.41;94521.09;5052146;28;20473;-80
2021/07/02 11:13:06;;;;;;;4.57;3.80;;;;;;;26.36;47.22;94523.47;5052270;28;20536;-77
2021/07/02 11:15:33;;;;;;;7.93;4.00;;;;;;;26.44;46.90;94526.59;5052292;28;20446;-78
2021/07/02 11:18:15;;;;;;;7.00;4.23;;;;;;;26.53;47.13;94522.47;5035747;28;20456;-77
2021/07/02 11:20:43;;;;;;;4.70;3.73;;;;;;;26.59;46.01;94515.31;5052278;28;20528;-77
2021/07/02 11:23:22;;;;;;;3.23;3.00;;;;;;;26.61;44.52;94509.72;5052014;28;20449;-77
2021/07/02 11:25:54;;;;;;;4.20;3.80;;;;;;;26.47;46.80;94504.59;5051753;28;20536;-77
2021/07/02 11:28:47;;;;;;;6.10;4.43;;;;;;;26.38;47.08;94503.34;5052014;28;20472;-77
2021/07/02 11:31:17;;;;;;;4.43;3.87;;;;;;;26.36;47.08;94515.41;5051721;28;20493;-77
2021/07/02 11:33:45;;;;;;;4.77;4.30;;;;;;;26.43;47.22;94511.50;5051845;28;20499;-77
2021/07/02 11:36:15;;;;;;;6.93;4.80;;;;;;;26.28;47.06;94513.00;5051882;28;20445;-77
2021/07/02 11:38:48;;;;;;;9.60;4.43;;;;;;;26.31;47.32;94512.53;5018572;28;20528;-77
2021/07/02 11:41:26;;;;;;;5.20;4.43;;;;;;;26.49;46.93;94502.47;5051882;28;20537;-77
2021/07/02 11:43:56;;;;;;;6.63;5.10;;;;;;;26.63;47.14;94504.94;5051512;28;20484;-77
2021/07/02 11:46:24;;;;;;;5.40;5.00;;;;;;;26.81;47.26;94504.72;5077475;28;20454;-77